createdAt,value
2022-11-12T00:01:12.267Z,100837.19
2022-11-12T00:03:41.778Z,100851.19
2022-11-12T00:06:09.721Z,100841.53
2022-11-12T00:08:37.710Z,100853.88
2022-11-12T00:11:06.174Z,100820.41
2022-11-12T00:13:34.382Z,100791.13
2022-11-12T00:16:02.301Z,100843.25
2022-11-12T00:18:30.508Z,100839.72
2022-11-12T00:20:59.790Z,100783.88
2022-11-12T00:23:27.621Z,100836.09
2022-11-12T00:26:01.920Z,100851.16
2022-11-12T00:28:34.766Z,100847.63
2022-11-12T00:31:10.034Z,100837.94
2022-11-12T00:33:41.208Z,100861.66
2022-11-12T00:36:11.047Z,100843.16
2022-11-12T00:38:38.972Z,100835.25
2022-11-12T00:41:07.009Z,100836.09
2022-11-12T00:43:35.147Z,100832.50
2022-11-12T00:46:03.103Z,100719.97
2022-11-12T00:48:30.928Z,100851.06
2022-11-12T00:51:03.387Z,100824.38
2022-11-12T00:53:32.918Z,100842.19
2022-11-12T00:56:05.092Z,100850.97
2022-11-12T00:58:34.828Z,100855.31
2022-11-12T01:01:08.275Z,100804.69
2022-11-12T01:03:36.407Z,100862.31
2022-11-12T01:06:05.634Z,100857.03
2022-11-12T01:08:35.384Z,100864.06
2022-11-12T01:11:08.334Z,100887.78
2022-11-12T01:13:41.329Z,100874.50
2022-11-12T01:16:14.159Z,100890.41
2022-11-12T01:18:43.123Z,100901.75
2022-11-12T01:21:11.517Z,100893.84
2022-11-12T01:23:42.503Z,100883.41
2022-11-12T01:26:12.235Z,100906.28
2022-11-12T01:28:40.826Z,100915.94
2022-11-12T01:31:14.057Z,100876.25
2022-11-12T01:33:42.089Z,100870.97
2022-11-12T01:36:11.296Z,100872.66
2022-11-12T01:38:42.240Z,100916.84
2022-11-12T01:41:12.553Z,100908.94
2022-11-12T01:43:40.811Z,100901.00
2022-11-12T01:46:15.676Z,100904.53
2022-11-12T01:48:49.591Z,100881.44
2022-11-12T01:51:17.837Z,100905.34
2022-11-12T01:53:51.331Z,100902.78
2022-11-12T01:56:21.414Z,100893.09
2022-11-12T01:58:53.619Z,100902.75
2022-11-12T02:01:21.747Z,100918.59
2022-11-12T02:03:49.831Z,100882.31
2022-11-12T02:06:18.703Z,100898.34
2022-11-12T02:08:49.540Z,100909.78
2022-11-12T02:11:19.871Z,100898.22
2022-11-12T02:14:01.411Z,100897.41
2022-11-12T02:16:33.803Z,100905.97
2022-11-12T02:19:02.212Z,100899.09
2022-11-12T02:21:31.770Z,100860.16
2022-11-12T02:24:01.889Z,100900.91
2022-11-12T02:26:34.393Z,100896.53
2022-11-12T02:29:02.622Z,100922.13
2022-11-12T02:31:30.654Z,100911.56
2022-11-12T02:34:00.110Z,100913.31
2022-11-12T02:36:28.430Z,100921.06
2022-11-12T02:38:57.857Z,100944.94
2022-11-12T02:41:26.167Z,100921.06
2022-11-12T02:43:54.195Z,100926.34
2022-11-12T02:46:22.133Z,100933.50
2022-11-12T02:48:50.280Z,100938.75
2022-11-12T02:51:18.245Z,100945.66
2022-11-12T02:53:46.131Z,100938.63
2022-11-12T02:56:15.582Z,100959.91
2022-11-12T02:58:43.556Z,100964.31
2022-11-12T03:01:11.580Z,100965.16
2022-11-12T03:03:39.616Z,100966.06
2022-11-12T03:06:08.436Z,100967.78
2022-11-12T03:08:36.275Z,100870.25
2022-11-12T03:11:08.390Z,100913.75
2022-11-12T03:13:38.181Z,100952.81
2022-11-12T03:16:06.316Z,100965.16
2022-11-12T03:18:34.475Z,100989.78
2022-11-12T03:21:02.679Z,100993.31
2022-11-12T03:23:30.675Z,100997.75
2022-11-12T03:25:58.944Z,101002.16
2022-11-12T03:28:27.389Z,101002.16
2022-11-12T03:31:00.624Z,101005.72
2022-11-12T03:33:28.600Z,101018.06
2022-11-12T03:35:56.549Z,101024.28
2022-11-12T03:38:25.091Z,101026.94
2022-11-12T03:40:53.171Z,101044.59
2022-11-12T03:43:21.209Z,101018.22
2022-11-12T03:45:49.096Z,101040.22
2022-11-12T03:48:18.385Z,101025.25
2022-11-12T03:50:46.474Z,101013.84
2022-11-12T03:53:14.359Z,101027.03
2022-11-12T03:55:42.648Z,101041.97
2022-11-12T03:58:10.560Z,101031.41
2022-11-12T04:00:38.521Z,101036.66
2022-11-12T04:03:06.445Z,101034.00
2022-11-12T04:05:53.367Z,101042.84
2022-11-12T04:08:38.787Z,101048.09
2022-11-12T04:11:09.426Z,101033.66
2022-11-12T04:13:38.681Z,100994.47
2022-11-12T04:16:26.566Z,101064.78
2022-11-12T04:19:13.570Z,101057.75
2022-11-12T04:21:55.124Z,101072.72
2022-11-12T04:24:42.978Z,101070.03
2022-11-12T04:27:12.779Z,101063.84
2022-11-12T04:29:58.058Z,101033.69
2022-11-12T04:32:26.797Z,101069.06
2022-11-12T04:34:54.959Z,101077.81
2022-11-12T04:37:25.818Z,101093.66
2022-11-12T04:39:54.766Z,101070.78
2022-11-12T04:42:40.205Z,101084.84
2022-11-12T04:45:10.055Z,101050.41
2022-11-12T04:47:39.617Z,101107.66
2022-11-12T04:50:09.814Z,101086.50
2022-11-12T04:52:39.925Z,101102.22
2022-11-12T04:55:08.514Z,101106.66
2022-11-12T04:57:36.616Z,101123.31
2022-11-12T05:00:06.041Z,101143.53
2022-11-12T05:02:34.028Z,101139.19
2022-11-12T05:05:01.911Z,101128.66
2022-11-12T05:07:30.059Z,101134.78
2022-11-12T05:09:59.380Z,101139.13
2022-11-12T05:12:27.347Z,101142.38
2022-11-12T05:14:55.458Z,101172.41
2022-11-12T05:17:23.419Z,101168.88
2022-11-12T05:19:51.278Z,101188.19
2022-11-12T05:22:42.098Z,101181.25
2022-11-12T05:25:09.932Z,101162.47
2022-11-12T05:27:38.113Z,101185.59
2022-11-12T05:30:07.936Z,101164.22
2022-11-12T05:32:35.963Z,101181.09
2022-11-12T05:35:04.311Z,101211.75
2022-11-12T05:37:32.259Z,101207.34
2022-11-12T05:40:00.259Z,101224.00
2022-11-12T05:42:29.799Z,101184.16
2022-11-12T05:44:57.654Z,101227.47
2022-11-12T05:47:25.518Z,101232.66
2022-11-12T05:49:53.600Z,101246.66
2022-11-12T05:52:21.432Z,101247.22
2022-11-12T05:54:49.306Z,101257.00
2022-11-12T05:57:17.386Z,101267.56
2022-11-12T05:59:46.755Z,101266.59
2022-11-12T06:02:14.639Z,101265.66
2022-11-12T06:04:42.909Z,101275.25
2022-11-12T06:07:11.129Z,101272.56
2022-11-12T06:09:39.157Z,101246.66
2022-11-12T06:12:08.542Z,101296.25
2022-11-12T06:14:36.664Z,101301.47
2022-11-12T06:17:06.109Z,101298.81
2022-11-12T06:19:34.177Z,101291.72
2022-11-12T06:22:02.313Z,101314.44
2022-11-12T06:24:34.959Z,101334.59
2022-11-12T06:27:03.892Z,101319.63
2022-11-12T06:29:31.931Z,101335.34
2022-11-12T06:31:59.981Z,101340.44
2022-11-12T06:34:29.543Z,101340.56
2022-11-12T06:36:57.384Z,101360.75
2022-11-12T06:39:25.228Z,101365.13
2022-11-12T06:41:54.024Z,101359.56
2022-11-12T06:44:22.513Z,101369.34
2022-11-12T06:46:50.515Z,101316.34
2022-11-12T06:49:18.682Z,101399.16
2022-11-12T06:51:48.003Z,101350.19
2022-11-12T06:54:15.934Z,101400.81
2022-11-12T06:56:43.965Z,101339.31
2022-11-12T06:59:12.012Z,101410.63
2022-11-12T07:01:39.969Z,101403.56
2022-11-12T07:04:08.135Z,101417.59
2022-11-12T07:06:36.122Z,101423.75
2022-11-12T07:09:06.247Z,101437.88
2022-11-12T07:11:34.416Z,101404.09
2022-11-12T07:14:02.231Z,101440.50
2022-11-12T07:16:30.063Z,101442.28
2022-11-12T07:18:58.091Z,101441.44
2022-11-12T07:21:26.221Z,101441.44
2022-11-12T07:23:54.255Z,101476.63
2022-11-12T07:26:25.509Z,101448.28
2022-11-12T07:28:56.525Z,101430.25
2022-11-12T07:31:25.867Z,101478.47
2022-11-12T07:33:55.199Z,101443.69
2022-11-12T07:36:23.358Z,101496.19
2022-11-12T07:38:53.245Z,101489.88
2022-11-12T07:41:24.403Z,101496.88
2022-11-12T07:43:54.191Z,101506.94
2022-11-12T07:46:24.454Z,101523.72
2022-11-12T07:48:52.941Z,101544.06
2022-11-12T07:51:22.801Z,101535.34
2022-11-12T07:53:57.757Z,101528.78
2022-11-12T07:56:29.636Z,101543.31
2022-11-12T07:58:57.568Z,101547.03
2022-11-12T08:01:30.451Z,101562.53
2022-11-12T08:03:58.565Z,101576.91
2022-11-12T08:06:26.949Z,101585.94
2022-11-12T08:08:55.415Z,101603.75
2022-11-12T08:11:23.663Z,101591.75
2022-11-12T08:13:53.414Z,101588.47
2022-11-12T08:16:21.661Z,101608.44
2022-11-12T08:18:49.613Z,101625.56
2022-11-12T08:21:18.786Z,101634.75
2022-11-12T08:23:47.403Z,101629.78
2022-11-12T08:26:17.486Z,101605.03
2022-11-12T08:28:45.516Z,101619.38
2022-11-12T08:31:17.263Z,101626.66
2022-11-12T08:33:45.292Z,101633.25
2022-11-12T08:36:15.252Z,101639.50
2022-11-12T08:38:43.687Z,101642.31
2022-11-12T08:41:13.799Z,101602.00
2022-11-12T08:43:42.819Z,101642.31
2022-11-12T08:46:11.267Z,101641.53
2022-11-12T08:48:41.370Z,101651.69
2022-11-12T08:51:09.503Z,101674.00
2022-11-12T08:53:37.734Z,101643.00
2022-11-12T08:56:05.942Z,101642.28
2022-11-12T08:58:33.794Z,101667.22
2022-11-12T09:01:05.825Z,101655.69
2022-11-12T09:03:33.668Z,101671.81
2022-11-12T09:06:06.066Z,101688.44
2022-11-12T09:08:36.270Z,101692.09
2022-11-12T09:11:05.316Z,101699.50
2022-11-12T09:13:34.077Z,101702.41
2022-11-12T09:16:03.775Z,101697.78
2022-11-12T09:18:32.487Z,101696.34
2022-11-12T09:21:07.210Z,101688.38
2022-11-12T09:23:35.705Z,101733.63
2022-11-12T09:26:04.465Z,101721.34
2022-11-12T09:28:33.083Z,101724.91
2022-11-12T09:31:01.346Z,101721.44
2022-11-12T09:33:32.790Z,101744.53
2022-11-12T09:36:02.554Z,101745.59
2022-11-12T09:38:32.159Z,101739.34
2022-11-12T09:41:14.099Z,101765.25
2022-11-12T09:43:47.702Z,101768.84
2022-11-12T09:46:28.298Z,101769.56
2022-11-12T09:49:03.750Z,101782.75
2022-11-12T09:51:35.020Z,101784.50
2022-11-12T09:54:14.715Z,101756.72
2022-11-12T09:56:42.838Z,101803.19
2022-11-12T09:59:13.697Z,101808.34
2022-11-12T10:01:56.013Z,101807.09
2022-11-12T10:04:44.460Z,101770.19
2022-11-12T10:07:22.430Z,101823.97
2022-11-12T10:10:02.578Z,101812.59
2022-11-12T10:12:41.085Z,101817.69
2022-11-12T10:15:54.148Z,101815.72
2022-11-12T10:18:31.928Z,101835.53
2022-11-12T10:21:07.583Z,101836.66
2022-11-12T10:23:42.643Z,101845.59
2022-11-12T10:26:16.623Z,101851.50
2022-11-12T10:28:49.164Z,101827.00
2022-11-12T10:31:19.177Z,101850.75
2022-11-12T10:33:47.430Z,101866.50
2022-11-12T10:36:27.845Z,101868.22
2022-11-12T10:38:56.358Z,101873.34
2022-11-12T10:41:28.482Z,101869.66
2022-11-12T10:43:58.997Z,101872.25
2022-11-12T10:46:29.175Z,101876.53
2022-11-12T10:49:02.856Z,101858.59
2022-11-12T10:51:33.480Z,101825.47
2022-11-12T10:54:19.936Z,101886.16
2022-11-12T10:56:55.031Z,101889.53
2022-11-12T10:59:24.235Z,101891.06
2022-11-12T11:01:56.728Z,101900.84
2022-11-12T11:04:31.759Z,101903.50
2022-11-12T11:07:01.727Z,101912.44
2022-11-12T11:09:29.855Z,101906.22
2022-11-12T11:11:59.502Z,101915.97
2022-11-12T11:14:31.826Z,101881.13
2022-11-12T11:17:01.756Z,101924.78
2022-11-12T11:19:36.888Z,101925.50
2022-11-12T11:22:27.474Z,101910.22
2022-11-12T11:25:17.720Z,101926.06
2022-11-12T11:27:59.013Z,101939.19
2022-11-12T11:30:27.204Z,101938.16
2022-11-12T11:33:20.001Z,101961.09
2022-11-12T11:35:56.265Z,101950.31
2022-11-12T11:38:36.019Z,101969.13
2022-11-12T11:41:30.421Z,101973.56
2022-11-12T11:44:13.796Z,101967.47
2022-11-12T11:46:56.000Z,101962.19
2022-11-12T11:49:50.632Z,101973.88
2022-11-12T11:52:36.984Z,101978.47
2022-11-12T11:55:16.628Z,101978.78
2022-11-12T11:57:56.603Z,101974.72
2022-11-12T12:00:31.288Z,101966.22
2022-11-12T12:03:17.855Z,101985.81
2022-11-12T12:05:55.753Z,101981.38
2022-11-12T12:08:36.430Z,101989.16
2022-11-12T12:11:11.965Z,102006.97
2022-11-12T12:13:56.442Z,102002.53
2022-11-12T12:16:37.335Z,101990.84
2022-11-12T12:19:12.570Z,101992.34
2022-11-12T12:21:45.914Z,101970.94
2022-11-12T12:24:20.044Z,101996.81
2022-11-12T12:26:51.769Z,102005.97
2022-11-12T12:29:26.392Z,102006.09
2022-11-12T12:32:02.834Z,102011.41
2022-11-12T12:34:34.425Z,102005.03
2022-11-12T12:37:11.680Z,101996.50
2022-11-12T12:39:49.097Z,102011.44
2022-11-12T12:42:23.760Z,102015.41
2022-11-12T12:45:02.131Z,102034.78
2022-11-12T12:47:36.706Z,102002.50
2022-11-12T12:50:12.076Z,102027.34
2022-11-12T12:53:02.986Z,102040.31
2022-11-12T12:55:40.349Z,102043.63
2022-11-12T12:58:19.370Z,102061.09
2022-11-12T13:00:52.132Z,102054.69
2022-11-12T13:03:50.876Z,102068.69
2022-11-12T13:06:27.568Z,102027.31
2022-11-12T13:08:59.079Z,102061.34
2022-11-12T13:12:07.994Z,102065.69
2022-11-12T13:15:11.554Z,102067.28
2022-11-12T13:17:53.012Z,102069.81
2022-11-12T13:20:41.202Z,102068.88
2022-11-12T13:24:10.939Z,102059.00
2022-11-12T13:26:46.527Z,102050.72
2022-11-12T13:29:39.849Z,102047.06
2022-11-12T13:32:34.948Z,102060.19
2022-11-12T13:35:22.524Z,102063.56
2022-11-12T13:37:54.908Z,102080.16
2022-11-12T13:40:37.435Z,102077.31
2022-11-12T13:43:11.184Z,102083.41
2022-11-12T13:45:47.130Z,102094.72
2022-11-12T13:48:18.611Z,102074.88
2022-11-12T13:50:53.050Z,102068.28
2022-11-12T13:53:26.562Z,102101.91
2022-11-12T13:55:56.048Z,102106.28
2022-11-12T13:58:31.462Z,102109.66
2022-11-12T14:01:01.512Z,102098.00
2022-11-12T14:03:33.136Z,102119.06
2022-11-12T14:06:06.751Z,102113.59
2022-11-12T14:09:04.325Z,102117.81
2022-11-12T14:11:52.637Z,102112.31
2022-11-12T14:14:30.370Z,102121.81
2022-11-12T14:17:10.146Z,102136.59
2022-11-12T14:20:09.408Z,102149.56
2022-11-12T14:22:41.469Z,102126.97
2022-11-12T14:25:18.936Z,102131.06
2022-11-12T14:27:47.596Z,102143.47
2022-11-12T14:30:22.138Z,102160.22
2022-11-12T14:32:53.354Z,102167.97
2022-11-12T14:35:37.517Z,102110.47
2022-11-12T14:38:15.546Z,102173.84
2022-11-12T14:40:52.620Z,102162.84
2022-11-12T14:43:28.163Z,102181.22
2022-11-12T14:45:59.103Z,102184.59
2022-11-12T14:48:27.711Z,102194.06
2022-11-12T14:51:04.231Z,102191.31
2022-11-12T14:53:38.461Z,102190.94
2022-11-12T14:56:10.742Z,102168.22
2022-11-12T14:58:40.746Z,102196.16
2022-11-12T15:02:03.816Z,102205.72
2022-11-12T15:04:20.853Z,102205.22
2022-11-12T15:06:58.625Z,102215.94
2022-11-12T15:09:35.317Z,102206.91
2022-11-12T15:12:06.720Z,102218.22
2022-11-12T15:14:35.421Z,102230.59
2022-11-12T15:17:05.625Z,102223.13
2022-11-12T15:19:34.084Z,102215.75
2022-11-12T15:22:04.088Z,102196.72
2022-11-12T15:24:33.583Z,102187.53
2022-11-12T15:27:24.373Z,102225.44
2022-11-12T15:30:09.749Z,102229.63
2022-11-12T15:32:37.821Z,102236.56
2022-11-12T15:35:06.527Z,102249.59
2022-11-12T15:37:43.595Z,102246.31
2022-11-12T15:40:14.227Z,102270.41
2022-11-12T15:42:43.741Z,102242.19
2022-11-12T15:45:17.416Z,102270.97
2022-11-12T15:47:46.032Z,102270.91
2022-11-12T15:50:17.300Z,102274.16
2022-11-12T15:52:45.585Z,102246.81
2022-11-12T15:55:13.926Z,102276.06
2022-11-12T15:57:44.164Z,102305.28
2022-11-12T16:00:19.403Z,102298.97
2022-11-12T16:02:50.140Z,102302.38
2022-11-12T16:05:19.677Z,102287.84
2022-11-12T16:07:47.721Z,102310.97
2022-11-12T16:10:17.299Z,102312.69
2022-11-12T16:12:47.459Z,102309.09
2022-11-12T16:15:19.496Z,102315.06
2022-11-12T16:17:48.025Z,102310.63
2022-11-12T16:20:18.763Z,102307.91
2022-11-12T16:22:46.678Z,102240.47
2022-11-12T16:25:14.790Z,102311.72
2022-11-12T16:27:42.859Z,102312.44
2022-11-12T16:30:18.544Z,102310.28
2022-11-12T16:32:48.077Z,102316.16
2022-11-12T16:35:16.411Z,102323.81
2022-11-12T16:37:45.181Z,102321.88
2022-11-12T16:40:15.568Z,102287.16
2022-11-12T16:42:45.814Z,102301.75
2022-11-12T16:45:14.490Z,102323.22
2022-11-12T16:47:46.964Z,102327.44
2022-11-12T16:50:16.782Z,102332.47
2022-11-12T16:52:44.687Z,102336.59
2022-11-12T16:55:12.655Z,102340.00
2022-11-12T16:57:41.471Z,102289.38
2022-11-12T17:00:12.972Z,102285.47
2022-11-12T17:02:45.307Z,102330.31
2022-11-12T17:05:20.742Z,102285.91
2022-11-12T17:07:48.865Z,102341.44
2022-11-12T17:10:23.437Z,102353.88
2022-11-12T17:12:51.867Z,102346.38
2022-11-12T17:15:20.166Z,102344.28
2022-11-12T17:17:48.348Z,102366.56
2022-11-12T17:20:17.911Z,102367.31
2022-11-12T17:22:45.782Z,102352.75
2022-11-12T17:25:13.939Z,102367.59
2022-11-12T17:27:42.276Z,102366.13
2022-11-12T17:30:12.019Z,102370.16
2022-11-12T17:32:40.103Z,102374.59
2022-11-12T17:35:08.877Z,102375.09
2022-11-12T17:37:38.184Z,102370.59
2022-11-12T17:40:07.798Z,102383.56
2022-11-12T17:42:35.711Z,102387.09
2022-11-12T17:45:03.641Z,102360.81
2022-11-12T17:47:33.049Z,102339.69
2022-11-12T17:50:03.661Z,102390.16
2022-11-12T17:52:31.641Z,102402.22
2022-11-12T17:55:00.987Z,102395.00
2022-11-12T17:57:29.119Z,102402.06
2022-11-12T17:59:56.985Z,102335.06
2022-11-12T18:02:25.379Z,102382.41
2022-11-12T18:04:53.498Z,102420.03
2022-11-12T18:07:21.436Z,102363.53
2022-11-12T18:09:49.630Z,102434.47
2022-11-12T18:12:18.943Z,102435.28
2022-11-12T18:14:47.001Z,102438.81
2022-11-12T18:17:15.583Z,102450.19
2022-11-12T18:19:43.545Z,102130.03
2022-11-12T18:22:14.957Z,102461.34
2022-11-12T18:24:43.409Z,102474.38
2022-11-12T18:27:11.379Z,102457.81
2022-11-12T18:29:41.673Z,102482.84
2022-11-12T18:32:09.884Z,102483.47
2022-11-12T18:34:44.579Z,102484.97
2022-11-12T18:37:12.867Z,102491.59
2022-11-12T18:39:41.030Z,102495.75
2022-11-12T18:42:09.060Z,102496.34
2022-11-12T18:44:37.009Z,102474.78
2022-11-12T18:47:06.445Z,102489.06
2022-11-12T18:49:34.288Z,102483.09
2022-11-12T18:52:02.223Z,102481.13
2022-11-12T18:54:31.215Z,102505.19
2022-11-12T18:56:59.119Z,102508.25
2022-11-12T18:59:31.084Z,102506.16
2022-11-12T19:01:59.161Z,102517.22
2022-11-12T19:04:28.500Z,102512.53
2022-11-12T19:06:56.592Z,102484.28
2022-11-12T19:09:24.665Z,102493.22
2022-11-12T19:11:52.514Z,102500.00
2022-11-12T19:14:20.502Z,102515.09
2022-11-12T19:16:48.525Z,102526.19
2022-11-12T19:19:28.815Z,102530.44
2022-11-12T19:21:58.666Z,102495.41
2022-11-12T19:24:26.536Z,102486.13
2022-11-12T19:26:55.856Z,102469.88
2022-11-12T19:29:23.800Z,102481.50
2022-11-12T19:31:51.687Z,102537.31
2022-11-12T19:34:19.561Z,102538.94
2022-11-12T19:36:48.456Z,102506.44
2022-11-12T19:39:22.411Z,102547.69
2022-11-12T19:41:50.490Z,102550.31
2022-11-12T19:44:18.394Z,102552.75
2022-11-12T19:46:46.373Z,102543.38
2022-11-12T19:49:14.453Z,102566.41
2022-11-12T19:51:42.470Z,102569.81
2022-11-12T19:54:10.458Z,102485.84
2022-11-12T19:56:39.921Z,102571.44
2022-11-12T19:59:07.912Z,102573.88
2022-11-12T20:01:35.806Z,102573.88
2022-11-12T20:04:04.027Z,102560.97
2022-11-12T20:06:31.970Z,102581.66
2022-11-12T20:09:00.027Z,102579.75
2022-11-12T20:11:28.119Z,102581.28
2022-11-12T20:13:57.529Z,102556.16
2022-11-12T20:16:26.183Z,102595.63
2022-11-12T20:18:55.608Z,102598.16
2022-11-12T20:21:23.547Z,102596.16
2022-11-12T20:23:51.439Z,102596.16
2022-11-12T20:26:19.452Z,102600.41
2022-11-12T20:28:47.352Z,102583.75
2022-11-12T20:31:20.819Z,102610.59
2022-11-12T20:33:49.982Z,102588.00
2022-11-12T20:36:20.601Z,102606.69
2022-11-12T20:38:50.264Z,102613.53
2022-11-12T20:41:20.372Z,102606.94
2022-11-12T20:43:48.389Z,102620.22
2022-11-12T20:46:18.104Z,102623.53
2022-11-12T20:48:46.090Z,102624.25
2022-11-12T20:51:25.398Z,102622.34
2022-11-12T20:53:59.433Z,102622.06
2022-11-12T20:56:30.051Z,102632.34
2022-11-12T20:58:59.146Z,102629.53
2022-11-12T21:01:29.806Z,102629.22
2022-11-12T21:03:58.990Z,102542.03
2022-11-12T21:06:29.386Z,102633.97
2022-11-12T21:08:59.338Z,102632.97
2022-11-12T21:11:27.412Z,102618.13
2022-11-12T21:13:55.677Z,102634.22
2022-11-12T21:16:23.500Z,102648.09
2022-11-12T21:18:52.738Z,102650.50
2022-11-12T21:21:21.530Z,102636.13
2022-11-12T21:23:51.040Z,102643.88
2022-11-12T21:26:21.025Z,102615.84
2022-11-12T21:28:51.070Z,102577.50
2022-11-12T21:31:20.724Z,102580.72
2022-11-12T21:33:50.663Z,102634.03
2022-11-12T21:36:20.346Z,102631.31
2022-11-12T21:38:49.062Z,102633.84
2022-11-12T21:41:18.926Z,102610.88
2022-11-12T21:43:47.241Z,102637.06
2022-11-12T21:46:17.286Z,102624.16
2022-11-12T21:48:45.999Z,102644.91
2022-11-12T21:51:15.878Z,102646.59
2022-11-12T21:53:45.700Z,102560.41
2022-11-12T21:56:15.646Z,102655.03
2022-11-12T21:58:43.868Z,102655.72
2022-11-12T22:01:15.097Z,102644.34
2022-11-12T22:03:43.187Z,102633.28
2022-11-12T22:06:12.209Z,102614.91
2022-11-12T22:08:40.695Z,102653.50
2022-11-12T22:11:13.503Z,102644.44
2022-11-12T22:13:42.549Z,102638.91
2022-11-12T22:16:13.005Z,102644.84
2022-11-12T22:18:41.470Z,102650.56
2022-11-12T22:21:12.302Z,102633.75
2022-11-12T22:23:40.581Z,102616.88
2022-11-12T22:26:13.262Z,102655.56
2022-11-12T22:28:41.682Z,102650.44
2022-11-12T22:31:12.423Z,102644.00
2022-11-12T22:33:40.429Z,102631.22
2022-11-12T22:36:10.825Z,102672.13
2022-11-12T22:38:40.540Z,102585.22
2022-11-12T22:41:10.416Z,102664.69
2022-11-12T22:43:39.733Z,102659.34
2022-11-12T22:46:08.942Z,102621.59
2022-11-12T22:48:37.135Z,102649.78
2022-11-12T22:51:07.066Z,102677.31
2022-11-12T22:53:35.514Z,102678.81
2022-11-12T22:56:04.258Z,102683.03
2022-11-12T22:58:32.272Z,102679.41
2022-11-12T23:01:01.631Z,102684.41
2022-11-12T23:03:31.792Z,102686.00
2022-11-12T23:06:00.195Z,102681.38
2022-11-12T23:08:28.497Z,102697.81
2022-11-12T23:10:57.188Z,102700.34
2022-11-12T23:13:27.002Z,102672.25
2022-11-12T23:15:55.122Z,102700.22
2022-11-12T23:18:24.577Z,102701.13
2022-11-12T23:20:52.841Z,102704.66
2022-11-12T23:23:20.725Z,102689.47
2022-11-12T23:25:48.794Z,102670.00
2022-11-12T23:28:16.655Z,102688.34
2022-11-12T23:30:50.522Z,102678.47
2022-11-12T23:33:18.453Z,102696.50
2022-11-12T23:35:47.701Z,102681.78
2022-11-12T23:38:15.933Z,102693.81
2022-11-12T23:40:43.934Z,102708.19
2022-11-12T23:43:11.816Z,102697.09
2022-11-12T23:45:39.827Z,102700.72
2022-11-12T23:48:07.767Z,102691.00
2022-11-12T23:50:35.707Z,102706.28
2022-11-12T23:53:05.369Z,102708.09
2022-11-12T23:55:38.260Z,102705.25
2022-11-12T23:58:07.009Z,102692.69
